San Jose, California
Current Conditions -  °F | °C
As of 4:53 PM on Thursday 18 Dec 2014 (Local Time) from KSJC Reporting Station
Scattered Clouds Scattered Clouds  
Wind Chill: 58°   Ceiling: Unl
Heat Index: 58°   Visibility: 10mi
Dew Point: 49°   Wind: 7mph
Humidity: 72%   Direction: 160°SSE
Pressure: 30.14"   Gusts: NA
Location:  37.35°N, 121.9°W
Report Text: KSJC 190053Z 16006KT 10SM FEW024 SCT032 SCT090 14/09 A3014 RMK AO2 SLP204 T01440094
Loading
Personal Weather Stations






























Interactive Weather Map New forecast layout! Learn more

10-Day Weather Forecast

Advertisements
Track Severe Weather on mobile